Decoded Metar for UUEE (MOSCOW/SHEREMETYEVO in RUSSIA) (IATA:SVO) | Meteo·Mobile Aviation Weather
aviador You're here:

UUEE Decoded Metar

MOSCOW/SHEREMETYEVO in RUSSIA
Report Time2018-12-15 14:30:00
UTC Time2018-12-15 15:03:07
Flight Rules lifr LIFR
Wind020° at 8 kt
W.Decomp.*RWY 07: 4.0 kt HW 6.9 kt LCW
W.Rank020° ranks 31
Current wind is below 020° avg. (8.0)
Visibility9999 m
Phenomena:N/A
Clouds:Overcast 004 Hf
Expected CloudBase > 400 ft AGL from Temp-Dew spread
Ceiling400 ft
Temp-8°C (ISA -22)
Dew Point-9°C (93% RH)
AAT-13.9°C
QNH1034 hPa
Density Alt-2,753 ft
Elevation623 ft
Report Wrong Elevation
Raw Report
METAR UUEE 151430Z 02004MPS 9999 OVC004 M08/M09 Q1034 R06R/510345 R06C/510340
NOSIG=

Extra information for UUEE:More info

Metar Taf Metar & Taf Last 4 Metars F.Rules Stats Wind Profile Meteogram Temp Stats Airport Information Weather charts Add Link Nearby VenuesMetar ALERT Operation Metar Decoded Social comments